Other Surface Observations
Issued by NWS Great Falls, MT

Home | Current Version | Previous Version | Text Only | Print | Product List | Glossary On
Versions: 1 2 3 4 5 6 7 8 9 10 11 12 13 14 15 16 17 18 19 20 21 22 23 24 25 26 27 28 29 30 31 32 33 34 35 36 37 38 39 40 41 42 43 44 45 46 47 48 49 50
073
SXUS55 KTFX 250944
OSOTFX
AREA AWOS OBSERVATIONS
NATIONAL WEATHER SERVICE GREAT FALLS MT
0344 AM MDT SUN JUN 25 2017

METAR KPWD 250945Z AUTO 00000KT 10SM 12/05 A3025 RMK PLENTYWOOD
METAR KPO1 250945Z AUTO 00000KT 10SM 09/01 A3026 RMK POPLAR
METAR K1S3 250945Z AUTO 00000KT 10SM 10/00 A3029 RMK FORSYTH
METAR KS71 250945Z AUTO 00000KT 10SM 06/04 A3029 RMK CHINOOK
METAR K79S 250930Z AUTO 00000KT 8SM 11/06 A3032 RMK FORT BENTON
METAR K38S 250945Z AUTO 25003KT 10SM 09/03 A3036 RMK DEER LODGE
METAR K3U3 250945Z AUTO 22005KT 10SM 07/02 A3034 RMK ANACONDA
METAR K6S5 250945Z AUTO 16004KT 10SM 11/05 A3026 RMK HAMILTON
METAR K88M 250945Z AUTO 10SM 09/06 A3022 RMK EUREKA



USA.gov is the U.S. government's official web portal to all federal, state and local government web resources and services.